sensor_id;sensor_type;location;lat;lon;timestamp;pressure;altitude;pressure_sealevel;temperature;humidity
21547;BME280;41275;51.912;4.388;2023-03-14T00:05:17;98820.00;;;17.46;44.88
21547;BME280;41275;51.912;4.388;2023-03-14T00:10:39;98854.50;;;17.30;45.23
21547;BME280;41275;51.912;4.388;2023-03-14T00:16:09;98820.59;;;17.04;45.58
21547;BME280;41275;51.912;4.388;2023-03-14T00:21:30;98832.06;;;16.96;46.80
21547;BME280;41275;51.912;4.388;2023-03-14T00:26:51;98818.72;;;16.96;46.96
21547;BME280;41275;51.912;4.388;2023-03-14T00:32:13;98844.03;;;16.90;47.11
21547;BME280;41275;51.912;4.388;2023-03-14T00:37:34;98826.09;;;16.82;47.75
21547;BME280;41275;51.912;4.388;2023-03-14T00:42:55;98827.03;;;16.68;48.09
21547;BME280;41275;51.912;4.388;2023-03-14T00:48:18;98846.19;;;16.62;48.69
21547;BME280;41275;51.912;4.388;2023-03-14T00:53:39;98852.03;;;16.55;48.77
21547;BME280;41275;51.912;4.388;2023-03-14T00:59:01;98849.03;;;16.57;49.37
21547;BME280;41275;51.912;4.388;2023-03-14T01:04:22;98851.09;;;16.60;49.54
21547;BME280;41275;51.912;4.388;2023-03-14T01:09:43;98829.25;;;16.66;49.79
21547;BME280;41275;51.912;4.388;2023-03-14T01:15:05;98815.25;;;16.61;49.21
21547;BME280;41275;51.912;4.388;2023-03-14T01:20:26;98815.25;;;16.61;49.48
21547;BME280;41275;51.912;4.388;2023-03-14T01:25:47;98822.66;;;16.64;49.19
21547;BME280;41275;51.912;4.388;2023-03-14T01:31:09;98837.59;;;16.74;49.53
21547;BME280;41275;51.912;4.388;2023-03-14T01:36:31;98820.31;;;16.80;48.96
21547;BME280;41275;51.912;4.388;2023-03-14T01:41:52;98827.84;;;16.86;48.80
21547;BME280;41275;51.912;4.388;2023-03-14T01:47:13;98830.53;;;16.86;48.75
21547;BME280;41275;51.912;4.388;2023-03-14T01:52:38;98812.75;;;16.82;48.47
21547;BME280;41275;51.912;4.388;2023-03-14T01:58:03;98819.50;;;16.88;48.39
21547;BME280;41275;51.912;4.388;2023-03-14T02:03:26;98803.03;;;16.86;48.45
21547;BME280;41275;51.912;4.388;2023-03-14T02:08:50;98795.94;;;16.81;48.33
21547;BME280;41275;51.912;4.388;2023-03-14T02:14:21;98791.72;;;16.80;48.04
21547;BME280;41275;51.912;4.388;2023-03-14T02:25:46;98785.09;;;16.78;48.06
21547;BME280;41275;51.912;4.388;2023-03-14T02:31:09;98786.84;;;16.74;48.18
21547;BME280;41275;51.912;4.388;2023-03-14T02:36:31;98791.22;;;16.69;48.69
21547;BME280;41275;51.912;4.388;2023-03-14T02:41:52;98782.75;;;16.67;48.50
21547;BME280;41275;51.912;4.388;2023-03-14T02:47:13;98772.69;;;16.64;48.50
21547;BME280;41275;51.912;4.388;2023-03-14T02:52:35;98768.75;;;16.62;48.89
21547;BME280;41275;51.912;4.388;2023-03-14T02:57:56;98775.97;;;16.70;48.99
21547;BME280;41275;51.912;4.388;2023-03-14T03:03:18;98755.09;;;16.63;49.11
21547;BME280;41275;51.912;4.388;2023-03-14T03:08:39;98745.84;;;16.61;48.77
21547;BME280;41275;51.912;4.388;2023-03-14T03:14:00;98760.44;;;16.72;48.54
21547;BME280;41275;51.912;4.388;2023-03-14T03:19:21;98748.03;;;16.67;48.73
21547;BME280;41275;51.912;4.388;2023-03-14T03:24:42;98751.16;;;16.69;49.04
21547;BME280;41275;51.912;4.388;2023-03-14T03:30:06;98760.28;;;16.68;49.06
21547;BME280;41275;51.912;4.388;2023-03-14T03:35:27;98749.91;;;16.67;49.07
21547;BME280;41275;51.912;4.388;2023-03-14T03:40:48;98747.69;;;16.69;49.00
21547;BME280;41275;51.912;4.388;2023-03-14T03:46:09;98740.47;;;16.69;49.13
21547;BME280;41275;51.912;4.388;2023-03-14T03:51:31;98746.78;;;16.74;49.30
21547;BME280;41275;51.912;4.388;2023-03-14T03:56:52;98743.03;;;16.75;48.89
21547;BME280;41275;51.912;4.388;2023-03-14T04:02:13;98757.16;;;16.75;48.86
21547;BME280;41275;51.912;4.388;2023-03-14T04:07:34;98752.75;;;16.71;49.10
21547;BME280;41275;51.912;4.388;2023-03-14T04:12:55;98758.56;;;16.64;49.05
21547;BME280;41275;51.912;4.388;2023-03-14T04:18:23;98746.03;;;16.47;49.73
21547;BME280;41275;51.912;4.388;2023-03-14T04:23:45;98740.66;;;16.38;50.38
21547;BME280;41275;51.912;4.388;2023-03-14T04:29:06;98739.28;;;16.32;50.64
21547;BME280;41275;51.912;4.388;2023-03-14T04:34:28;98736.91;;;16.31;51.16
21547;BME280;41275;51.912;4.388;2023-03-14T04:39:49;98738.78;;;16.30;51.25
21547;BME280;41275;51.912;4.388;2023-03-14T04:45:10;98734.56;;;16.20;51.22
21547;BME280;41275;51.912;4.388;2023-03-14T04:50:31;98729.53;;;16.02;52.06
21547;BME280;41275;51.912;4.388;2023-03-14T04:55:54;98737.69;;;15.88;52.30
21547;BME280;41275;51.912;4.388;2023-03-14T05:01:15;98734.81;;;15.76;52.88
21547;BME280;41275;51.912;4.388;2023-03-14T05:06:37;98735.38;;;15.64;53.54
21547;BME280;41275;51.912;4.388;2023-03-14T05:11:58;98737.09;;;15.60;53.72
21547;BME280;41275;51.912;4.388;2023-03-14T05:17:19;98739.94;;;15.55;54.40
21547;BME280;41275;51.912;4.388;2023-03-14T05:22:41;98747.75;;;15.51;54.33
21547;BME280;41275;51.912;4.388;2023-03-14T05:33:58;98822.44;;;14.97;55.27
21547;BME280;41275;51.912;4.388;2023-03-14T05:39:20;98837.44;;;14.35;56.05
21547;BME280;41275;51.912;4.388;2023-03-14T05:44:41;98845.44;;;13.93;56.47
21547;BME280;41275;51.912;4.388;2023-03-14T05:50:02;98846.63;;;13.73;57.02
21547;BME280;41275;51.912;4.388;2023-03-14T05:55:23;98872.41;;;13.59;57.14
21547;BME280;41275;51.912;4.388;2023-03-14T06:00:45;98874.53;;;13.43;57.07
21547;BME280;41275;51.912;4.388;2023-03-14T06:06:06;98903.50;;;13.45;57.43
21547;BME280;41275;51.912;4.388;2023-03-14T06:11:27;98901.13;;;13.43;57.69
21547;BME280;41275;51.912;4.388;2023-03-14T06:16:48;98909.28;;;13.47;57.90
21547;BME280;41275;51.912;4.388;2023-03-14T06:22:10;98914.50;;;13.38;57.48
21547;BME280;41275;51.912;4.388;2023-03-14T06:27:31;98929.53;;;13.29;57.46
21547;BME280;41275;51.912;4.388;2023-03-14T06:32:52;98956.66;;;13.07;57.97
21547;BME280;41275;51.912;4.388;2023-03-14T06:38:13;98975.53;;;13.06;58.05
21547;BME280;41275;51.912;4.388;2023-03-14T06:43:34;98998.91;;;13.03;58.03
21547;BME280;41275;51.912;4.388;2023-03-14T06:48:56;99012.41;;;13.07;58.27
21547;BME280;41275;51.912;4.388;2023-03-14T06:54:17;99020.59;;;13.11;58.34
21547;BME280;41275;51.912;4.388;2023-03-14T06:59:38;99042.03;;;12.95;58.08
21547;BME280;41275;51.912;4.388;2023-03-14T07:04:59;99059.63;;;12.91;58.57
21547;BME280;41275;51.912;4.388;2023-03-14T07:10:21;99073.13;;;12.95;58.38
21547;BME280;41275;51.912;4.388;2023-03-14T07:15:43;99092.09;;;13.07;58.68
21547;BME280;41275;51.912;4.388;2023-03-14T07:21:07;99115.72;;;13.09;58.38
21547;BME280;41275;51.912;4.388;2023-03-14T07:26:30;99131.13;;;13.07;58.38
21547;BME280;41275;51.912;4.388;2023-03-14T07:31:51;99157.97;;;13.05;58.30
21547;BME280;41275;51.912;4.388;2023-03-14T07:37:12;99183.63;;;13.15;58.88
21547;BME280;41275;51.912;4.388;2023-03-14T07:42:33;99198.47;;;13.16;58.53
21547;BME280;41275;51.912;4.388;2023-03-14T07:47:54;99199.47;;;13.25;58.54
21547;BME280;41275;51.912;4.388;2023-03-14T07:53:18;99224.81;;;13.12;58.45
21547;BME280;41275;51.912;4.388;2023-03-14T07:58:40;99266.81;;;13.10;58.43
21547;BME280;41275;51.912;4.388;2023-03-14T08:04:01;99263.13;;;13.06;58.47
21547;BME280;41275;51.912;4.388;2023-03-14T08:09:22;99308.22;;;12.77;58.60
21547;BME280;41275;51.912;4.388;2023-03-14T08:14:43;99336.63;;;12.82;58.53
21547;BME280;41275;51.912;4.388;2023-03-14T08:20:05;99390.31;;;12.73;58.42
21547;BME280;41275;51.912;4.388;2023-03-14T08:25:31;99400.00;;;12.44;58.07
21547;BME280;41275;51.912;4.388;2023-03-14T08:30:54;99422.41;;;12.22;58.05
21547;BME280;41275;51.912;4.388;2023-03-14T08:36:15;99453.41;;;12.27;58.42
21547;BME280;41275;51.912;4.388;2023-03-14T08:41:37;99462.94;;;12.28;58.20
21547;BME280;41275;51.912;4.388;2023-03-14T08:47:01;99493.44;;;12.31;57.63
21547;BME280;41275;51.912;4.388;2023-03-14T08:52:22;99513.09;;;12.19;57.73
21547;BME280;41275;51.912;4.388;2023-03-14T08:57:43;99537.41;;;12.62;57.37
21547;BME280;41275;51.912;4.388;2023-03-14T09:03:04;99562.75;;;12.89;56.84
21547;BME280;41275;51.912;4.388;2023-03-14T09:08:26;99581.69;;;13.37;56.54
21547;BME280;41275;51.912;4.388;2023-03-14T09:13:47;99585.91;;;13.43;55.96
21547;BME280;41275;51.912;4.388;2023-03-14T09:19:09;99611.31;;;13.59;55.44
21547;BME280;41275;51.912;4.388;2023-03-14T09:24:30;99639.97;;;14.07;54.39
21547;BME280;41275;51.912;4.388;2023-03-14T09:29:51;99657.19;;;14.14;53.48
21547;BME280;41275;51.912;4.388;2023-03-14T09:35:13;99667.41;;;14.02;52.83
21547;BME280;41275;51.912;4.388;2023-03-14T09:40:36;99697.00;;;13.95;51.95
21547;BME280;41275;51.912;4.388;2023-03-14T09:45:58;99722.56;;;13.11;52.03
21547;BME280;41275;51.912;4.388;2023-03-14T09:51:22;99765.38;;;12.38;52.36
21547;BME280;41275;51.912;4.388;2023-03-14T09:56:44;99772.00;;;12.46;52.75
21547;BME280;41275;51.912;4.388;2023-03-14T10:02:28;99783.41;;;13.02;52.31
21547;BME280;41275;51.912;4.388;2023-03-14T10:07:52;99796.38;;;13.40;51.10
21547;BME280;41275;51.912;4.388;2023-03-14T10:18:44;99841.84;;;14.13;49.00
21547;BME280;41275;51.912;4.388;2023-03-14T10:24:35;99856.50;;;14.11;48.13
21547;BME280;41275;51.912;4.388;2023-03-14T10:29:59;99877.34;;;14.53;47.10
21547;BME280;41275;51.912;4.388;2023-03-14T10:35:22;99901.13;;;14.29;45.73
21547;BME280;41275;51.912;4.388;2023-03-14T10:40:49;99921.84;;;14.37;45.17
21547;BME280;41275;51.912;4.388;2023-03-14T10:46:15;99948.94;;;14.60;44.08
21547;BME280;41275;51.912;4.388;2023-03-14T10:51:38;99959.91;;;14.43;42.76
21547;BME280;41275;51.912;4.388;2023-03-14T10:57:00;99979.56;;;14.42;42.13
21547;BME280;41275;51.912;4.388;2023-03-14T11:14:31;100044.84;;;14.29;40.75
21547;BME280;41275;51.912;4.388;2023-03-14T11:20:22;100065.31;;;14.34;40.15
21547;BME280;41275;51.912;4.388;2023-03-14T11:26:24;100085.56;;;14.24;39.40
21547;BME280;41275;51.912;4.388;2023-03-14T11:31:43;100103.66;;;14.33;38.26
21547;BME280;41275;51.912;4.388;2023-03-14T11:37:29;100111.63;;;14.43;37.42
21547;BME280;41275;51.912;4.388;2023-03-14T11:43:12;100139.44;;;15.07;36.92
21547;BME280;41275;51.912;4.388;2023-03-14T11:48:39;100142.53;;;15.84;34.79
21547;BME280;41275;51.912;4.388;2023-03-14T12:00:05;100175.66;;;16.46;33.37
21547;BME280;41275;51.912;4.388;2023-03-14T12:16:46;100201.72;;;16.88;31.85
21547;BME280;41275;51.912;4.388;2023-03-14T12:22:25;100221.34;;;16.44;30.28
21547;BME280;41275;51.912;4.388;2023-03-14T12:38:47;100253.16;;;16.41;29.20
21547;BME280;41275;51.912;4.388;2023-03-14T12:49:52;100277.50;;;16.68;30.90
21547;BME280;41275;51.912;4.388;2023-03-14T12:55:32;100291.94;;;17.55;29.81
21547;BME280;41275;51.912;4.388;2023-03-14T13:00:58;100316.72;;;18.27;28.47
21547;BME280;41275;51.912;4.388;2023-03-14T13:12:11;100361.84;;;17.19;28.71
21547;BME280;41275;51.912;4.388;2023-03-14T13:17:34;100364.34;;;16.71;27.87
21547;BME280;41275;51.912;4.388;2023-03-14T13:22:55;100383.59;;;16.18;28.50
21547;BME280;41275;51.912;4.388;2023-03-14T13:28:19;100385.16;;;16.25;28.76
21547;BME280;41275;51.912;4.388;2023-03-14T13:33:40;100405.81;;;15.99;29.21
21547;BME280;41275;51.912;4.388;2023-03-14T13:39:02;100402.13;;;15.79;29.28
21547;BME280;41275;51.912;4.388;2023-03-14T13:44:33;100419.75;;;15.80;29.59
21547;BME280;41275;51.912;4.388;2023-03-14T13:49:54;100434.97;;;15.64;29.74
21547;BME280;41275;51.912;4.388;2023-03-14T13:55:17;100442.97;;;15.59;29.21
21547;BME280;41275;51.912;4.388;2023-03-14T14:00:39;100450.69;;;15.56;29.48
21547;BME280;41275;51.912;4.388;2023-03-14T14:06:00;100472.56;;;15.32;29.93
21547;BME280;41275;51.912;4.388;2023-03-14T14:11:36;100479.94;;;14.74;30.69
21547;BME280;41275;51.912;4.388;2023-03-14T14:16:59;100492.88;;;14.50;31.10
21547;BME280;41275;51.912;4.388;2023-03-14T14:22:22;100503.09;;;14.16;31.34
21547;BME280;41275;51.912;4.388;2023-03-14T14:27:47;100513.66;;;14.06;31.87
21547;BME280;41275;51.912;4.388;2023-03-14T14:33:18;100530.47;;;14.11;32.06
21547;BME280;41275;51.912;4.388;2023-03-14T14:38:40;100541.81;;;13.96;32.54
21547;BME280;41275;51.912;4.388;2023-03-14T14:44:03;100560.28;;;14.13;32.87
21547;BME280;41275;51.912;4.388;2023-03-14T14:49:30;100558.97;;;14.16;32.76
21547;BME280;41275;51.912;4.388;2023-03-14T14:54:53;100595.44;;;14.58;32.21
21547;BME280;41275;51.912;4.388;2023-03-14T15:00:21;100593.63;;;14.63;30.80
21547;BME280;41275;51.912;4.388;2023-03-14T15:05:42;100617.63;;;14.68;30.42
21547;BME280;41275;51.912;4.388;2023-03-14T15:11:03;100627.66;;;14.51;30.57
21547;BME280;41275;51.912;4.388;2023-03-14T15:16:29;100635.06;;;14.49;30.19
21547;BME280;41275;51.912;4.388;2023-03-14T15:21:52;100639.13;;;14.57;29.80
21547;BME280;41275;51.912;4.388;2023-03-14T15:27:15;100650.13;;;14.33;30.15
21547;BME280;41275;51.912;4.388;2023-03-14T15:32:37;100664.66;;;14.20;29.73
21547;BME280;41275;51.912;4.388;2023-03-14T15:37:59;100660.47;;;14.30;29.84
21547;BME280;41275;51.912;4.388;2023-03-14T15:43:20;100680.78;;;14.41;30.20
21547;BME280;41275;51.912;4.388;2023-03-14T15:48:41;100688.81;;;14.46;29.86
21547;BME280;41275;51.912;4.388;2023-03-14T15:54:02;100703.91;;;14.35;29.67
21547;BME280;41275;51.912;4.388;2023-03-14T15:59:24;100703.41;;;14.38;30.04
21547;BME280;41275;51.912;4.388;2023-03-14T16:04:45;100713.63;;;14.19;30.32
21547;BME280;41275;51.912;4.388;2023-03-14T16:10:08;100712.78;;;14.14;31.10
21547;BME280;41275;51.912;4.388;2023-03-14T16:15:30;100729.84;;;14.18;31.50
21547;BME280;41275;51.912;4.388;2023-03-14T16:20:57;100733.53;;;14.44;30.88
21547;BME280;41275;51.912;4.388;2023-03-14T16:26:19;100740.28;;;14.52;30.95
21547;BME280;41275;51.912;4.388;2023-03-14T16:31:40;100750.63;;;14.21;30.95
21547;BME280;41275;51.912;4.388;2023-03-14T16:37:02;100759.19;;;13.96;31.73
21547;BME280;41275;51.912;4.388;2023-03-14T16:42:24;100766.81;;;13.87;32.17
21547;BME280;41275;51.912;4.388;2023-03-14T16:47:45;100776.88;;;13.63;31.72
21547;BME280;41275;51.912;4.388;2023-03-14T16:53:06;100784.00;;;13.58;31.73
21547;BME280;41275;51.912;4.388;2023-03-14T16:58:27;100790.34;;;13.35;31.63
21547;BME280;41275;51.912;4.388;2023-03-14T17:03:51;100826.16;;;13.15;31.65
21547;BME280;41275;51.912;4.388;2023-03-14T17:09:12;100812.84;;;12.93;31.67
21547;BME280;41275;51.912;4.388;2023-03-14T17:14:33;100831.50;;;12.82;31.57
21547;BME280;41275;51.912;4.388;2023-03-14T17:19:55;100843.00;;;12.70;31.88
21547;BME280;41275;51.912;4.388;2023-03-14T17:25:16;100843.94;;;12.64;32.54
21547;BME280;41275;51.912;4.388;2023-03-14T17:30:37;100835.72;;;12.49;32.86
21547;BME280;41275;51.912;4.388;2023-03-14T17:35:58;100852.00;;;12.41;33.38
21547;BME280;41275;51.912;4.388;2023-03-14T17:41:20;100858.88;;;12.25;34.03
21547;BME280;41275;51.912;4.388;2023-03-14T17:46:41;100876.22;;;12.16;33.96
21547;BME280;41275;51.912;4.388;2023-03-14T17:52:02;100897.81;;;12.08;34.18
21547;BME280;41275;51.912;4.388;2023-03-14T17:57:23;100890.22;;;11.99;33.87
21547;BME280;41275;51.912;4.388;2023-03-14T18:02:45;100903.84;;;11.91;33.46
21547;BME280;41275;51.912;4.388;2023-03-14T18:08:07;100914.66;;;11.90;33.51
21547;BME280;41275;51.912;4.388;2023-03-14T18:13:31;100924.72;;;11.88;33.50
21547;BME280;41275;51.912;4.388;2023-03-14T18:18:53;100923.09;;;11.87;33.69
21547;BME280;41275;51.912;4.388;2023-03-14T18:24:14;100919.75;;;11.79;33.71
21547;BME280;41275;51.912;4.388;2023-03-14T18:29:36;100925.03;;;11.79;33.78
21547;BME280;41275;51.912;4.388;2023-03-14T18:34:57;100930.34;;;11.79;34.08
21547;BME280;41275;51.912;4.388;2023-03-14T18:40:18;100939.09;;;11.80;34.24
21547;BME280;41275;51.912;4.388;2023-03-14T18:45:40;100945.47;;;11.91;34.26
21547;BME280;41275;51.912;4.388;2023-03-14T18:51:01;100946.38;;;11.96;34.41
21547;BME280;41275;51.912;4.388;2023-03-14T18:56:25;100944.16;;;12.17;34.15
21547;BME280;41275;51.912;4.388;2023-03-14T19:01:46;100948.78;;;12.10;34.76
21547;BME280;41275;51.912;4.388;2023-03-14T19:07:07;100942.31;;;12.06;35.23
21547;BME280;41275;51.912;4.388;2023-03-14T19:12:28;100942.66;;;12.09;35.45
21547;BME280;41275;51.912;4.388;2023-03-14T19:17:50;100933.78;;;12.15;36.28
21547;BME280;41275;51.912;4.388;2023-03-14T19:23:11;100934.69;;;12.21;36.97
21547;BME280;41275;51.912;4.388;2023-03-14T19:28:35;100939.97;;;12.33;37.16
21547;BME280;41275;51.912;4.388;2023-03-14T19:33:56;100942.72;;;12.38;37.40
21547;BME280;41275;51.912;4.388;2023-03-14T19:39:18;100935.13;;;12.29;37.35
21547;BME280;41275;51.912;4.388;2023-03-14T19:44:39;100930.66;;;12.30;36.94
21547;BME280;41275;51.912;4.388;2023-03-14T19:50:01;100947.09;;;12.44;37.02
21547;BME280;41275;51.912;4.388;2023-03-14T19:55:24;100960.63;;;12.31;37.52
21547;BME280;41275;51.912;4.388;2023-03-14T20:00:45;100970.22;;;12.20;37.86
21547;BME280;41275;51.912;4.388;2023-03-14T20:06:09;100977.84;;;12.16;39.05
21547;BME280;41275;51.912;4.388;2023-03-14T20:11:32;100990.31;;;12.16;39.56
21547;BME280;41275;51.912;4.388;2023-03-14T20:16:55;100989.03;;;12.18;40.59
21547;BME280;41275;51.912;4.388;2023-03-14T20:22:16;100990.66;;;12.19;41.45
21547;BME280;41275;51.912;4.388;2023-03-14T20:27:38;101001.94;;;12.26;41.86
21547;BME280;41275;51.912;4.388;2023-03-14T20:33:00;101000.44;;;12.31;42.13
21547;BME280;41275;51.912;4.388;2023-03-14T20:38:25;101017.03;;;12.38;42.99
21547;BME280;41275;51.912;4.388;2023-03-14T20:43:47;101014.50;;;12.43;42.77
21547;BME280;41275;51.912;4.388;2023-03-14T20:49:08;101020.59;;;12.43;43.23
21547;BME280;41275;51.912;4.388;2023-03-14T20:54:30;101033.28;;;12.53;42.93
21547;BME280;41275;51.912;4.388;2023-03-14T20:59:52;101041.13;;;12.60;42.21
21547;BME280;41275;51.912;4.388;2023-03-14T21:05:13;101039.34;;;12.77;41.30
21547;BME280;41275;51.912;4.388;2023-03-14T21:10:34;101040.34;;;12.88;41.02
21547;BME280;41275;51.912;4.388;2023-03-14T21:15:59;101037.69;;;12.88;40.39
21547;BME280;41275;51.912;4.388;2023-03-14T21:21:21;101070.44;;;12.53;40.82
21547;BME280;41275;51.912;4.388;2023-03-14T21:26:42;101079.09;;;11.18;43.49
21547;BME280;41275;51.912;4.388;2023-03-14T21:32:03;101089.16;;;10.36;45.22
21547;BME280;41275;51.912;4.388;2023-03-14T21:37:24;101123.69;;;9.91;45.84
21547;BME280;41275;51.912;4.388;2023-03-14T21:42:47;101124.19;;;9.74;47.53
21547;BME280;41275;51.912;4.388;2023-03-14T21:48:09;101128.50;;;9.69;47.97
21547;BME280;41275;51.912;4.388;2023-03-14T21:53:31;101137.44;;;9.36;48.69
21547;BME280;41275;51.912;4.388;2023-03-14T21:58:53;101150.03;;;9.27;48.97
21547;BME280;41275;51.912;4.388;2023-03-14T22:04:15;101154.91;;;9.30;49.56
21547;BME280;41275;51.912;4.388;2023-03-14T22:09:42;101168.53;;;9.27;50.50
21547;BME280;41275;51.912;4.388;2023-03-14T22:15:05;101154.28;;;9.35;50.33
21547;BME280;41275;51.912;4.388;2023-03-14T22:20:27;101161.97;;;9.43;50.61
21547;BME280;41275;51.912;4.388;2023-03-14T22:25:48;101169.66;;;9.51;50.67
21547;BME280;41275;51.912;4.388;2023-03-14T22:31:09;101164.19;;;9.46;50.82
21547;BME280;41275;51.912;4.388;2023-03-14T22:36:31;101167.44;;;9.48;51.08
21547;BME280;41275;51.912;4.388;2023-03-14T22:41:53;101163.13;;;9.54;51.68
21547;BME280;41275;51.912;4.388;2023-03-14T22:47:14;101154.63;;;9.52;51.87
21547;BME280;41275;51.912;4.388;2023-03-14T22:52:35;101153.56;;;9.59;51.79
21547;BME280;41275;51.912;4.388;2023-03-14T22:57:56;101158.75;;;9.73;51.88
21547;BME280;41275;51.912;4.388;2023-03-14T23:03:19;101160.50;;;9.86;51.74
21547;BME280;41275;51.912;4.388;2023-03-14T23:08:40;101161.63;;;10.03;52.13
21547;BME280;41275;51.912;4.388;2023-03-14T23:14:03;101157.84;;;10.17;52.45
21547;BME280;41275;51.912;4.388;2023-03-14T23:19:24;101151.09;;;10.28;52.28
21547;BME280;41275;51.912;4.388;2023-03-14T23:24:49;101142.59;;;10.44;52.01
21547;BME280;41275;51.912;4.388;2023-03-14T23:30:13;101143.22;;;10.65;51.92
21547;BME280;41275;51.912;4.388;2023-03-14T23:35:34;101140.31;;;10.73;51.82
21547;BME280;41275;51.912;4.388;2023-03-14T23:40:56;101146.56;;;10.78;52.43
21547;BME280;41275;51.912;4.388;2023-03-14T23:46:17;101145.72;;;10.60;51.83
21547;BME280;41275;51.912;4.388;2023-03-14T23:51:39;101162.44;;;10.03;52.38
21547;BME280;41275;51.912;4.388;2023-03-14T23:57:00;101157.31;;;9.77;52.46
